Time;durP1;ratioP1;P1;durP2;ratioP2;P2;SDS_P1;SDS_P2;PMS_P1;PMS_P2;Temp;Humidity;BMP_temperature;BMP_pressure;BME280_temperature;BME280_humidity;BME280_pressure;Samples;Min_cycle;Max_cycle;Signal;HPM_P1;HPM_P2
2023/12/08 00:01:15;;;;;;;43.20;19.27;;;-1.10;99.90;;;;;;4712150;30;20057;-52
2023/12/08 00:03:42;;;;;;;43.10;20.45;;;-1.10;99.90;;;;;;4727690;30;20055;-48
2023/12/08 00:06:10;;;;;;;39.47;20.10;;;-1.10;99.90;;;;;;4698694;30;20092;-48
2023/12/08 00:08:38;;;;;;;41.63;20.40;;;-1.10;99.90;;;;;;4710950;30;20457;-48
2023/12/08 00:11:06;;;;;;;41.13;19.42;;;-1.00;99.90;;;;;;4730915;30;20368;-53
2023/12/08 00:13:34;;;;;;;39.28;20.05;;;-1.00;99.90;;;;;;4730826;30;20144;-52
2023/12/08 00:16:03;;;;;;;39.10;20.80;;;-1.00;99.90;;;;;;4730992;30;20065;-48
2023/12/08 00:18:30;;;;;;;38.97;19.77;;;-0.90;99.90;;;;;;4730626;30;20045;-52
2023/12/08 00:20:58;;;;;;;38.45;19.05;;;-0.80;99.90;;;;;;4727105;30;20053;-53
2023/12/08 00:23:25;;;;;;;38.13;19.65;;;-0.80;99.90;;;;;;4730562;30;20080;-49
2023/12/08 00:25:52;;;;;;;37.78;18.00;;;-0.70;99.90;;;;;;4721805;30;20067;-51
2023/12/08 00:28:20;;;;;;;33.55;18.35;;;-0.70;99.90;;;;;;4729928;30;20063;-52
2023/12/08 00:30:47;;;;;;;35.70;18.40;;;-0.60;99.90;;;;;;4728685;30;20056;-47
2023/12/08 00:33:16;;;;;;;37.53;18.27;;;-0.60;99.90;;;;;;4713791;30;20063;-48
2023/12/08 00:35:43;;;;;;;35.20;18.80;;;-0.60;99.90;;;;;;4729445;30;20083;-50
2023/12/08 00:38:11;;;;;;;38.33;18.85;;;-0.50;99.90;;;;;;4715038;30;20053;-48
2023/12/08 00:40:38;;;;;;;34.67;17.67;;;-0.50;99.90;;;;;;4728351;30;20138;-49
2023/12/08 00:43:05;;;;;;;36.67;19.30;;;-0.40;99.90;;;;;;4728481;30;20040;-50
2023/12/08 00:45:32;;;;;;;31.45;16.83;;;-0.40;99.90;;;;;;4727116;30;20060;-49
2023/12/08 00:47:59;;;;;;;33.92;16.50;;;-0.40;99.90;;;;;;4728069;30;20061;-50
2023/12/08 00:50:27;;;;;;;34.33;18.20;;;-0.40;99.90;;;;;;4728769;30;20577;-49
2023/12/08 00:52:54;;;;;;;29.40;16.33;;;-0.30;99.90;;;;;;4710432;30;20155;-48
2023/12/08 00:55:21;;;;;;;34.75;18.15;;;-0.30;99.90;;;;;;4729600;30;20049;-51
2023/12/08 00:57:48;;;;;;;32.83;17.55;;;-0.30;99.90;;;;;;4713424;30;20542;-52
2023/12/08 01:00:17;;;;;;;32.72;17.30;;;-0.30;99.90;;;;;;4729949;30;20075;-50
2023/12/08 01:02:45;;;;;;;31.55;16.65;;;-0.30;99.90;;;;;;4698106;30;20123;-47
2023/12/08 01:05:12;;;;;;;31.50;16.25;;;-0.20;99.90;;;;;;4713913;30;20064;-50
2023/12/08 01:07:39;;;;;;;30.00;16.08;;;-0.20;99.90;;;;;;4730082;30;20055;-48
2023/12/08 01:10:07;;;;;;;34.75;17.02;;;-0.20;99.90;;;;;;4710450;30;20052;-48
2023/12/08 01:12:35;;;;;;;28.75;16.38;;;-0.20;99.90;;;;;;4714191;30;20507;-50
2023/12/08 01:15:03;;;;;;;31.23;15.77;;;-0.20;99.90;;;;;;4700585;30;20070;-48
2023/12/08 01:17:30;;;;;;;31.50;15.45;;;-0.20;99.90;;;;;;4724770;30;20053;-48
2023/12/08 01:19:58;;;;;;;30.23;15.90;;;-0.20;99.90;;;;;;4714704;30;20049;-47
2023/12/08 01:22:27;;;;;;;28.90;16.38;;;-0.20;99.90;;;;;;4724040;30;20063;-47
2023/12/08 01:24:55;;;;;;;30.30;15.60;;;-0.20;99.90;;;;;;4715826;30;20175;-47
2023/12/08 01:27:22;;;;;;;31.92;16.42;;;-0.20;99.90;;;;;;4718441;30;20072;-49
2023/12/08 01:29:50;;;;;;;32.50;16.13;;;-0.10;99.90;;;;;;4717760;30;20543;-46
2023/12/08 01:32:17;;;;;;;26.45;15.40;;;-0.10;99.90;;;;;;4724702;30;20060;-51
2023/12/08 01:34:44;;;;;;;28.95;14.95;;;0.00;99.90;;;;;;4731246;30;20078;-49
2023/12/08 01:37:11;;;;;;;29.50;15.77;;;0.00;99.90;;;;;;4714909;30;20504;-49
2023/12/08 01:39:38;;;;;;;25.63;14.45;;;-0.10;99.90;;;;;;4729239;30;20567;-54
2023/12/08 01:42:06;;;;;;;30.85;15.05;;;0.00;99.90;;;;;;4729075;30;20053;-47
2023/12/08 01:44:33;;;;;;;27.27;15.48;;;-0.10;99.90;;;;;;4707843;30;20056;-46
2023/12/08 01:47:01;;;;;;;27.45;14.75;;;-0.10;99.90;;;;;;4730101;30;20144;-48
2023/12/08 01:49:28;;;;;;;30.10;15.80;;;-0.10;99.90;;;;;;4729746;30;20052;-48
2023/12/08 01:51:57;;;;;;;32.30;15.43;;;-0.10;99.90;;;;;;4711189;30;20140;-49
2023/12/08 01:54:24;;;;;;;29.30;15.30;;;-0.10;99.90;;;;;;4728199;30;20056;-51
2023/12/08 01:56:51;;;;;;;29.33;15.45;;;-0.10;99.90;;;;;;4730103;30;20497;-54
2023/12/08 01:59:19;;;;;;;26.45;14.80;;;-0.10;99.90;;;;;;4728334;30;20063;-50
2023/12/08 02:01:47;;;;;;;28.45;16.38;;;0.00;99.90;;;;;;4728923;30;20111;-52
2023/12/08 02:04:14;;;;;;;27.70;14.32;;;0.00;99.90;;;;;;4729313;30;20713;-52
2023/12/08 02:06:42;;;;;;;27.05;14.98;;;0.00;99.90;;;;;;4725453;30;20471;-47
2023/12/08 02:09:09;;;;;;;30.38;14.82;;;0.00;99.90;;;;;;4711810;30;20068;-47
2023/12/08 02:11:37;;;;;;;28.05;14.48;;;0.00;99.90;;;;;;4727136;30;20060;-47
2023/12/08 02:14:04;;;;;;;27.27;14.65;;;0.10;99.90;;;;;;4711100;30;20106;-49
2023/12/08 02:16:55;;;;;;;25.58;14.00;;;0.10;99.90;;;;;;4729040;30;20044;-48
2023/12/08 02:19:22;;;;;;;24.45;14.27;;;0.20;99.90;;;;;;4675279;30;20054;-49
2023/12/08 02:21:50;;;;;;;24.02;13.57;;;0.20;99.90;;;;;;4673294;30;20050;-47
2023/12/08 02:24:19;;;;;;;22.20;12.88;;;0.20;99.90;;;;;;4674552;30;20514;-49
2023/12/08 02:26:47;;;;;;;28.48;13.82;;;0.20;99.90;;;;;;4673639;30;20073;-50
2023/12/08 02:29:16;;;;;;;26.42;14.10;;;0.30;99.90;;;;;;4674235;30;20058;-50
2023/12/08 02:31:47;;;;;;;26.35;13.68;;;0.20;99.90;;;;;;4673219;30;20142;-46
2023/12/08 02:34:16;;;;;;;24.23;13.40;;;0.30;99.90;;;;;;4666779;30;20134;-48
2023/12/08 02:36:48;;;;;;;26.30;13.43;;;0.30;99.90;;;;;;4673656;30;20058;-47
2023/12/08 02:39:16;;;;;;;22.83;12.63;;;0.30;99.90;;;;;;4674783;30;20137;-48
2023/12/08 02:41:43;;;;;;;23.52;14.00;;;0.30;99.90;;;;;;4673103;30;20056;-46
2023/12/08 02:44:11;;;;;;;24.23;12.07;;;0.30;99.90;;;;;;4675226;30;20161;-51
2023/12/08 02:46:39;;;;;;;22.65;12.98;;;0.30;99.90;;;;;;4674381;30;20073;-47
2023/12/08 02:49:06;;;;;;;24.42;12.93;;;0.40;99.90;;;;;;4673740;30;20062;-48
2023/12/08 02:51:33;;;;;;;23.40;13.15;;;0.40;99.90;;;;;;4673218;30;20052;-47
2023/12/08 02:54:00;;;;;;;23.02;13.00;;;0.50;99.90;;;;;;4671927;30;20132;-45
2023/12/08 02:56:27;;;;;;;21.40;12.93;;;0.40;99.90;;;;;;4699354;30;20064;-47
2023/12/08 02:58:54;;;;;;;20.95;11.75;;;0.50;99.90;;;;;;4727814;30;20592;-51
2023/12/08 03:01:22;;;;;;;23.27;12.85;;;0.50;99.90;;;;;;4728416;30;20052;-46
2023/12/08 03:03:49;;;;;;;20.60;11.85;;;0.50;99.90;;;;;;4712312;30;20061;-49
2023/12/08 03:06:16;;;;;;;20.02;11.45;;;0.50;99.90;;;;;;4725550;30;20074;-50
2023/12/08 03:08:43;;;;;;;20.00;11.85;;;0.40;99.90;;;;;;4727869;30;20116;-46
2023/12/08 03:11:10;;;;;;;20.58;12.05;;;0.50;99.90;;;;;;4717466;30;20094;-48
2023/12/08 03:13:37;;;;;;;21.35;12.10;;;0.50;99.90;;;;;;4726400;30;20474;-47
2023/12/08 03:16:05;;;;;;;23.00;13.15;;;0.50;99.90;;;;;;4728833;30;20155;-51
2023/12/08 03:18:32;;;;;;;23.48;12.05;;;0.50;99.90;;;;;;4723796;30;20056;-50
2023/12/08 03:21:00;;;;;;;21.40;12.10;;;0.60;99.90;;;;;;4712484;30;20486;-48
2023/12/08 03:23:27;;;;;;;21.40;12.32;;;0.60;99.90;;;;;;4723255;30;20060;-49
2023/12/08 03:25:54;;;;;;;22.48;12.60;;;0.60;99.90;;;;;;4728537;30;20616;-50
2023/12/08 03:28:21;;;;;;;21.17;12.20;;;0.60;99.90;;;;;;4726840;30;20075;-49
2023/12/08 03:30:48;;;;;;;20.60;12.48;;;0.60;99.90;;;;;;4722226;30;20097;-47
2023/12/08 03:33:15;;;;;;;21.90;12.25;;;0.60;99.90;;;;;;4712424;30;20156;-47
2023/12/08 03:35:42;;;;;;;20.70;12.20;;;0.50;99.90;;;;;;4712382;30;20078;-48
2023/12/08 03:38:09;;;;;;;21.77;12.23;;;0.60;99.90;;;;;;4728530;30;20139;-52
2023/12/08 03:40:37;;;;;;;26.98;13.57;;;0.60;99.90;;;;;;4728269;30;20052;-49
2023/12/08 03:43:04;;;;;;;18.95;12.07;;;0.70;99.90;;;;;;4709369;30;20068;-50
2023/12/08 03:45:31;;;;;;;21.55;12.43;;;0.70;99.90;;;;;;4727506;30;20049;-47
2023/12/08 03:47:58;;;;;;;20.90;12.10;;;0.70;99.90;;;;;;4715810;30;20151;-48
2023/12/08 03:50:25;;;;;;;22.98;12.15;;;0.70;99.90;;;;;;4731993;30;20061;-48
2023/12/08 03:52:54;;;;;;;22.70;13.23;;;0.70;99.90;;;;;;4729887;30;20083;-49
2023/12/08 03:55:22;;;;;;;23.30;12.90;;;0.70;99.90;;;;;;4730024;30;20087;-48
2023/12/08 03:57:50;;;;;;;22.90;12.63;;;0.70;99.90;;;;;;4732213;30;20061;-49
2023/12/08 04:00:17;;;;;;;22.25;12.35;;;0.70;99.90;;;;;;4729374;30;20159;-51
2023/12/08 04:02:44;;;;;;;23.00;12.73;;;0.70;99.90;;;;;;4730265;30;20140;-48
2023/12/08 04:05:12;;;;;;;21.17;12.82;;;0.70;99.90;;;;;;4728996;30;20128;-50
2023/12/08 04:07:39;;;;;;;22.70;13.32;;;0.70;99.90;;;;;;4727919;30;20479;-47
2023/12/08 04:10:06;;;;;;;21.63;12.43;;;0.70;99.90;;;;;;4701315;30;20141;-48
2023/12/08 04:12:34;;;;;;;24.02;13.50;;;0.70;99.90;;;;;;4728050;30;20131;-51
2023/12/08 04:15:01;;;;;;;21.17;12.95;;;0.70;99.90;;;;;;4714179;30;20502;-48
2023/12/08 04:17:28;;;;;;;23.45;13.20;;;0.60;99.90;;;;;;4728775;30;20152;-48
2023/12/08 04:19:56;;;;;;;21.10;11.88;;;0.60;99.90;;;;;;4722393;30;20048;-50
2023/12/08 04:22:23;;;;;;;22.90;12.48;;;0.60;99.90;;;;;;4729402;30;20060;-49
2023/12/08 04:24:50;;;;;;;19.83;11.55;;;0.70;99.90;;;;;;4734176;30;20140;-50
2023/12/08 04:27:17;;;;;;;22.30;13.07;;;0.60;99.90;;;;;;4724360;30;20109;-51
2023/12/08 04:29:44;;;;;;;23.02;12.85;;;0.60;99.90;;;;;;4731553;30;20044;-49
2023/12/08 04:32:12;;;;;;;21.33;12.48;;;0.60;99.90;;;;;;4727977;30;20454;-48
2023/12/08 04:34:39;;;;;;;20.90;12.27;;;0.60;99.90;;;;;;4713375;30;20134;-50
2023/12/08 04:37:06;;;;;;;26.73;15.13;;;0.60;99.90;;;;;;4706451;30;20048;-47
2023/12/08 04:39:34;;;;;;;23.80;13.70;;;0.60;99.90;;;;;;4729068;30;20045;-53
2023/12/08 04:42:01;;;;;;;23.40;13.45;;;0.60;99.90;;;;;;4723977;30;20135;-46
2023/12/08 04:44:28;;;;;;;24.80;13.70;;;0.50;99.90;;;;;;4726506;30;20129;-51
2023/12/08 04:46:55;;;;;;;21.73;12.25;;;0.50;99.90;;;;;;4731827;30;20059;-49
2023/12/08 04:49:22;;;;;;;21.25;11.73;;;0.50;99.90;;;;;;4700402;30;20114;-51
2023/12/08 04:51:49;;;;;;;20.73;11.75;;;0.40;99.90;;;;;;4708765;30;20053;-48
2023/12/08 04:54:17;;;;;;;20.60;12.68;;;0.50;99.90;;;;;;4714542;30;20090;-53
2023/12/08 04:56:44;;;;;;;20.75;12.13;;;0.50;99.90;;;;;;4727649;30;20047;-48
2023/12/08 04:59:11;;;;;;;23.20;12.07;;;0.40;99.90;;;;;;4712090;30;20122;-47
2023/12/08 05:01:38;;;;;;;24.15;13.25;;;0.50;99.90;;;;;;4725182;30;20049;-48
2023/12/08 05:04:05;;;;;;;23.17;13.00;;;0.60;99.90;;;;;;4711603;30;20110;-47
2023/12/08 05:06:32;;;;;;;27.85;15.23;;;0.60;99.90;;;;;;4728736;30;20053;-49
2023/12/08 05:08:59;;;;;;;29.17;17.15;;;0.60;99.90;;;;;;4726230;30;20068;-46
2023/12/08 05:11:26;;;;;;;25.67;14.30;;;0.70;99.90;;;;;;4726093;30;20053;-47
2023/12/08 05:13:53;;;;;;;22.20;13.05;;;0.70;99.90;;;;;;4700478;30;20068;-46
2023/12/08 05:16:20;;;;;;;24.67;13.93;;;0.70;99.90;;;;;;4712728;30;20135;-51
2023/12/08 05:18:48;;;;;;;26.50;14.30;;;0.70;99.90;;;;;;4710219;30;20060;-47
2023/12/08 05:21:15;;;;;;;25.83;14.25;;;0.70;99.90;;;;;;4728260;30;20072;-49
2023/12/08 05:23:42;;;;;;;25.45;13.63;;;0.70;99.90;;;;;;4728172;30;20106;-52
2023/12/08 05:26:09;;;;;;;29.88;15.02;;;0.60;99.90;;;;;;4731432;30;20150;-50
2023/12/08 05:28:36;;;;;;;28.13;15.40;;;0.60;99.90;;;;;;4726423;30;20121;-48
2023/12/08 05:31:04;;;;;;;25.90;14.73;;;0.60;99.90;;;;;;4724055;30;20052;-46
2023/12/08 05:33:32;;;;;;;34.40;17.67;;;0.60;99.90;;;;;;4726012;30;20060;-48
2023/12/08 05:35:59;;;;;;;33.47;16.85;;;0.60;99.90;;;;;;4724404;30;20068;-49
2023/12/08 05:38:28;;;;;;;30.00;16.95;;;0.70;99.90;;;;;;4726867;30;20052;-50
2023/12/08 05:40:55;;;;;;;29.83;15.75;;;0.70;99.90;;;;;;4728329;30;20600;-48
2023/12/08 05:43:22;;;;;;;28.77;14.95;;;0.70;99.90;;;;;;4721184;30;20071;-51
2023/12/08 05:45:50;;;;;;;31.30;15.70;;;0.70;99.90;;;;;;4727172;30;20115;-50
2023/12/08 05:48:17;;;;;;;31.95;15.88;;;0.70;99.90;;;;;;4710845;30;20118;-50
2023/12/08 05:50:44;;;;;;;32.72;16.92;;;0.80;99.90;;;;;;4713403;30;20080;-52
2023/12/08 05:53:13;;;;;;;29.60;15.48;;;0.80;99.90;;;;;;4726501;30;20071;-49
2023/12/08 05:55:41;;;;;;;29.15;15.43;;;0.80;99.90;;;;;;4727267;30;20060;-46
2023/12/08 05:58:08;;;;;;;29.67;16.27;;;0.80;99.90;;;;;;4730920;30;20118;-50
2023/12/08 06:00:35;;;;;;;33.28;16.80;;;0.80;99.90;;;;;;4726832;30;20110;-46
2023/12/08 06:03:02;;;;;;;32.30;15.90;;;0.80;99.90;;;;;;4708280;30;20460;-48
2023/12/08 06:05:29;;;;;;;29.50;15.75;;;0.80;99.90;;;;;;4724163;30;20143;-51
2023/12/08 06:07:57;;;;;;;31.98;17.27;;;0.80;99.90;;;;;;4730946;30;20115;-52
2023/12/08 06:10:24;;;;;;;33.30;16.65;;;0.80;99.90;;;;;;4724798;30;20060;-47
2023/12/08 06:12:52;;;;;;;32.40;16.58;;;0.70;99.90;;;;;;4724254;30;20382;-44
2023/12/08 06:15:19;;;;;;;30.63;15.63;;;0.80;99.90;;;;;;4727055;30;20086;-50
2023/12/08 06:17:47;;;;;;;31.52;16.17;;;0.80;99.90;;;;;;4727602;30;20080;-45
2023/12/08 06:20:14;;;;;;;31.40;15.73;;;0.80;99.90;;;;;;4726996;30;20118;-46
2023/12/08 06:22:43;;;;;;;32.40;16.02;;;0.80;99.90;;;;;;4715295;30;20053;-48
2023/12/08 06:25:10;;;;;;;30.08;15.95;;;0.80;99.90;;;;;;4728318;30;20063;-46
2023/12/08 06:27:37;;;;;;;30.88;16.33;;;0.80;99.90;;;;;;4726425;30;20201;-47
2023/12/08 06:30:06;;;;;;;30.55;15.60;;;0.70;99.90;;;;;;4726422;30;20141;-48
2023/12/08 06:32:33;;;;;;;30.65;15.75;;;0.70;99.90;;;;;;4725073;30;20064;-46
2023/12/08 06:35:01;;;;;;;32.08;17.08;;;0.80;99.90;;;;;;4708734;30;20048;-49
2023/12/08 06:37:28;;;;;;;30.60;16.65;;;0.80;99.90;;;;;;4726797;30;20425;-49
2023/12/08 06:39:56;;;;;;;29.95;16.02;;;0.70;99.90;;;;;;4727160;30;20431;-51
2023/12/08 06:42:23;;;;;;;31.63;15.80;;;0.70;99.90;;;;;;4692869;30;20466;-50
2023/12/08 06:44:50;;;;;;;30.75;15.95;;;0.70;99.90;;;;;;4725024;30;20157;-50
2023/12/08 06:47:17;;;;;;;31.83;17.17;;;0.70;99.90;;;;;;4725907;30;20400;-45
2023/12/08 06:49:44;;;;;;;31.92;16.95;;;0.70;99.90;;;;;;4724554;30;20384;-49
2023/12/08 06:52:12;;;;;;;33.05;17.08;;;0.70;99.90;;;;;;4720675;30;20064;-49
2023/12/08 06:54:39;;;;;;;32.28;16.25;;;0.70;99.90;;;;;;4725561;30;20049;-48
2023/12/08 06:57:08;;;;;;;33.88;17.30;;;0.80;99.90;;;;;;4728572;30;20056;-50
2023/12/08 06:59:35;;;;;;;33.42;17.48;;;0.70;99.90;;;;;;4723197;30;20428;-48
2023/12/08 07:02:02;;;;;;;31.90;15.77;;;0.70;99.90;;;;;;4725888;30;20057;-52
2023/12/08 07:04:30;;;;;;;31.27;16.38;;;0.70;99.90;;;;;;4723337;30;20060;-45
2023/12/08 07:06:57;;;;;;;31.33;15.43;;;0.70;99.90;;;;;;4722151;30;20692;-47
2023/12/08 07:09:25;;;;;;;34.08;16.42;;;0.70;99.90;;;;;;4722569;30;20056;-50
2023/12/08 07:11:52;;;;;;;30.58;16.33;;;0.70;99.90;;;;;;4710505;30;20431;-50
2023/12/08 07:14:22;;;;;;;31.75;16.10;;;0.70;99.90;;;;;;4702920;30;20057;-45
2023/12/08 07:16:49;;;;;;;31.27;15.23;;;0.80;99.90;;;;;;4717741;30;20114;-47
2023/12/08 07:19:17;;;;;;;32.83;16.20;;;0.70;99.90;;;;;;4716561;30;20144;-52
2023/12/08 07:21:45;;;;;;;30.10;15.30;;;0.80;99.90;;;;;;4722198;30;20456;-46
2023/12/08 07:24:14;;;;;;;28.58;14.73;;;0.80;99.90;;;;;;4722591;30;20053;-47
2023/12/08 07:26:41;;;;;;;35.22;17.55;;;0.90;99.90;;;;;;4723587;30;20581;-46
2023/12/08 07:29:08;;;;;;;31.33;16.35;;;0.90;99.90;;;;;;4725778;30;20068;-48
2023/12/08 07:31:35;;;;;;;28.98;15.65;;;0.90;99.90;;;;;;4722280;30;20056;-47
2023/12/08 07:34:02;;;;;;;27.73;15.32;;;0.90;99.90;;;;;;4724276;30;20061;-46
2023/12/08 07:36:30;;;;;;;31.48;16.90;;;0.90;99.90;;;;;;4728811;30;20048;-47
2023/12/08 07:38:58;;;;;;;30.25;16.17;;;1.00;99.90;;;;;;4727575;30;20515;-49
2023/12/08 07:41:25;;;;;;;32.72;16.25;;;1.10;99.90;;;;;;4710495;30;20075;-47
2023/12/08 07:43:54;;;;;;;28.52;15.00;;;1.10;99.90;;;;;;4722151;30;20535;-50
2023/12/08 07:46:23;;;;;;;28.85;15.27;;;1.10;99.90;;;;;;4722467;30;20076;-52
2023/12/08 07:48:50;;;;;;;31.45;16.45;;;1.20;99.90;;;;;;4727194;30;20118;-50
2023/12/08 07:51:19;;;;;;;28.40;14.32;;;1.10;99.90;;;;;;4725093;30;20072;-47
2023/12/08 07:53:46;;;;;;;28.13;15.23;;;1.20;99.90;;;;;;4725127;30;20068;-48
2023/12/08 07:56:13;;;;;;;25.75;15.13;;;1.20;99.90;;;;;;4725519;30;20061;-47
2023/12/08 07:58:40;;;;;;;27.35;14.68;;;1.20;99.90;;;;;;4713596;30;20486;-48
2023/12/08 08:01:07;;;;;;;28.80;14.88;;;1.20;99.90;;;;;;4708856;30;20052;-49
2023/12/08 08:03:34;;;;;;;29.13;15.63;;;1.20;99.90;;;;;;4711689;30;20053;-49
2023/12/08 08:06:02;;;;;;;26.13;14.45;;;1.20;99.90;;;;;;4724483;30;20060;-47
2023/12/08 08:08:29;;;;;;;27.10;15.32;;;1.20;99.90;;;;;;4710036;30;20349;-49
2023/12/08 08:10:57;;;;;;;26.92;14.95;;;1.30;99.90;;;;;;4722757;30;20084;-51
2023/12/08 08:13:25;;;;;;;26.60;14.70;;;1.30;99.90;;;;;;4709766;30;20519;-49
2023/12/08 08:15:52;;;;;;;28.35;15.65;;;1.30;99.90;;;;;;4726009;30;22088;-54
2023/12/08 08:18:19;;;;;;;28.42;15.18;;;1.30;99.90;;;;;;4720409;30;20049;-49
2023/12/08 08:20:47;;;;;;;24.77;14.52;;;1.40;99.90;;;;;;4724555;30;20056;-47
2023/12/08 08:23:14;;;;;;;26.60;14.50;;;1.40;99.90;;;;;;4726420;30;20052;-49
2023/12/08 08:25:42;;;;;;;26.17;13.98;;;1.50;99.90;;;;;;4709812;30;20089;-50
2023/12/08 08:28:09;;;;;;;28.80;14.70;;;1.50;99.90;;;;;;4713202;30;20593;-48
2023/12/08 08:30:38;;;;;;;29.60;14.63;;;1.60;99.90;;;;;;4723313;30;20059;-49
2023/12/08 08:33:05;;;;;;;28.13;14.75;;;1.60;99.90;;;;;;4701268;30;20472;-52
2023/12/08 08:35:32;;;;;;;28.23;15.25;;;1.60;99.90;;;;;;4728431;30;20129;-50
2023/12/08 08:38:00;;;;;;;25.58;14.15;;;1.60;99.90;;;;;;4715141;30;20418;-51
2023/12/08 08:40:27;;;;;;;26.90;14.77;;;1.60;99.90;;;;;;4729442;30;20533;-51
2023/12/08 08:42:55;;;;;;;26.25;13.27;;;1.60;99.90;;;;;;4726856;30;20059;-50
2023/12/08 08:45:23;;;;;;;30.02;14.45;;;1.70;99.90;;;;;;4729431;30;20056;-51
2023/12/08 08:47:50;;;;;;;25.77;13.82;;;1.70;99.90;;;;;;4729927;30;20076;-46
2023/12/08 08:50:18;;;;;;;30.02;17.10;;;1.80;99.90;;;;;;4724727;30;20052;-46
2023/12/08 08:52:45;;;;;;;27.33;15.30;;;1.70;99.90;;;;;;4725629;30;20110;-49
2023/12/08 08:55:12;;;;;;;29.30;15.95;;;1.80;99.90;;;;;;4725450;30;20156;-49
2023/12/08 08:57:39;;;;;;;26.75;14.55;;;1.80;99.90;;;;;;4727368;30;20041;-46
2023/12/08 09:00:11;;;;;;;26.13;14.43;;;1.80;99.90;;;;;;4726473;30;20048;-48
2023/12/08 09:02:41;;;;;;;30.42;15.60;;;1.80;99.90;;;;;;4726952;30;20139;-48
2023/12/08 09:05:08;;;;;;;29.63;15.48;;;1.80;99.90;;;;;;4727419;30;20055;-52
2023/12/08 09:07:36;;;;;;;24.85;14.52;;;1.80;99.90;;;;;;4698087;30;20093;-45
2023/12/08 09:10:06;;;;;;;26.90;14.00;;;1.90;99.90;;;;;;4724162;30;20211;-48
2023/12/08 09:12:34;;;;;;;25.48;14.13;;;2.00;99.90;;;;;;4708687;30;20060;-50
2023/12/08 09:15:01;;;;;;;25.65;14.35;;;1.90;99.90;;;;;;4727550;30;20431;-52
2023/12/08 09:17:28;;;;;;;24.35;13.40;;;1.90;99.90;;;;;;4726078;30;20230;-53
2023/12/08 09:19:55;;;;;;;23.67;13.38;;;1.90;99.90;;;;;;4713682;30;20055;-47
2023/12/08 09:22:23;;;;;;;21.63;13.43;;;1.90;99.90;;;;;;4725268;30;20053;-45
2023/12/08 09:24:51;;;;;;;24.98;14.23;;;2.00;99.90;;;;;;4726864;30;20572;-52
2023/12/08 09:27:18;;;;;;;25.27;14.13;;;2.00;99.90;;;;;;4710263;30;20094;-49
2023/12/08 09:29:45;;;;;;;24.70;14.25;;;1.90;99.90;;;;;;4697654;30;20063;-49
2023/12/08 09:32:13;;;;;;;22.55;13.50;;;2.00;99.90;;;;;;4708631;30;20068;-50
2023/12/08 09:34:41;;;;;;;27.83;14.18;;;1.90;99.90;;;;;;4731329;30;20074;-50
2023/12/08 09:37:10;;;;;;;28.60;14.55;;;2.00;99.90;;;;;;4723718;30;20064;-52
2023/12/08 09:39:56;;;;;;;24.45;13.88;;;2.00;99.90;;;;;;4710765;30;20048;-52
2023/12/08 09:42:31;;;;;;;31.92;16.05;;;2.00;99.90;;;;;;4712673;30;20052;-50
2023/12/08 09:45:00;;;;;;;22.98;14.30;;;2.10;99.90;;;;;;4723929;30;20532;-49
2023/12/08 09:47:29;;;;;;;25.08;14.07;;;2.20;99.90;;;;;;4710027;30;20053;-47
2023/12/08 09:50:01;;;;;;;23.45;13.60;;;2.30;99.90;;;;;;4724747;30;20091;-49
2023/12/08 09:52:30;;;;;;;27.23;14.15;;;2.30;99.90;;;;;;4724235;30;20061;-53
2023/12/08 09:54:58;;;;;;;28.70;15.38;;;2.30;99.90;;;;;;4724960;30;20067;-49
2023/12/08 09:57:29;;;;;;;22.92;13.82;;;2.40;99.90;;;;;;4732289;30;20508;-48
2023/12/08 09:59:59;;;;;;;24.08;14.48;;;2.20;99.90;;;;;;4709614;30;20196;-51
2023/12/08 10:02:30;;;;;;;25.15;13.93;;;2.30;99.90;;;;;;4727296;30;20114;-53
2023/12/08 10:04:57;;;;;;;27.23;14.05;;;2.30;99.90;;;;;;4724327;30;20049;-49
2023/12/08 10:07:28;;;;;;;32.65;17.88;;;2.40;99.90;;;;;;4726698;30;20055;-50
2023/12/08 10:09:55;;;;;;;30.95;17.40;;;2.40;99.90;;;;;;4729234;30;20168;-53
2023/12/08 10:12:22;;;;;;;28.88;15.25;;;2.40;99.90;;;;;;4724538;30;20540;-52
2023/12/08 10:14:50;;;;;;;26.15;13.77;;;2.60;99.90;;;;;;4727160;30;20056;-55
2023/12/08 10:17:18;;;;;;;25.38;14.82;;;2.70;99.90;;;;;;4727236;30;20518;-50
2023/12/08 10:19:46;;;;;;;26.38;15.15;;;2.80;99.90;;;;;;4730943;30;20062;-51
2023/12/08 10:22:13;;;;;;;23.40;14.63;;;2.80;99.90;;;;;;4722523;30;20128;-49
2023/12/08 10:24:41;;;;;;;27.70;15.63;;;2.80;99.90;;;;;;4724105;30;20060;-55
2023/12/08 10:27:09;;;;;;;24.42;14.40;;;2.80;99.90;;;;;;4723437;30;20092;-49
2023/12/08 10:29:37;;;;;;;25.45;14.18;;;2.70;99.90;;;;;;4708344;30;20056;-50
2023/12/08 10:32:04;;;;;;;25.70;14.85;;;2.60;99.90;;;;;;4725564;30;20052;-48
2023/12/08 10:34:32;;;;;;;24.67;14.70;;;2.70;99.90;;;;;;4725766;30;20130;-50
2023/12/08 10:37:00;;;;;;;24.25;14.00;;;2.80;99.90;;;;;;4698841;30;20100;-53
2023/12/08 10:39:27;;;;;;;26.13;14.80;;;2.80;99.90;;;;;;4732670;30;20067;-51
2023/12/08 10:41:55;;;;;;;24.23;14.18;;;2.70;99.90;;;;;;4699101;30;21081;-49
2023/12/08 10:44:23;;;;;;;24.70;14.60;;;2.70;99.90;;;;;;4722889;30;20135;-53
2023/12/08 10:46:52;;;;;;;28.90;16.15;;;2.70;99.90;;;;;;4712337;30;20116;-51
2023/12/08 10:49:20;;;;;;;26.15;14.60;;;2.80;99.90;;;;;;4724101;30;20084;-55
2023/12/08 10:51:48;;;;;;;29.35;16.08;;;2.80;99.90;;;;;;4723283;30;20112;-53
2023/12/08 10:54:17;;;;;;;26.80;14.75;;;2.70;99.90;;;;;;4722408;30;20064;-52
2023/12/08 10:56:46;;;;;;;27.52;14.63;;;2.80;99.90;;;;;;4737078;30;20639;-53
2023/12/08 10:59:21;;;;;;;25.23;14.43;;;2.70;99.90;;;;;;4732446;30;20077;-53
2023/12/08 11:01:51;;;;;;;27.73;15.25;;;2.70;99.90;;;;;;4725737;30;20051;-52
2023/12/08 11:04:25;;;;;;;25.50;13.73;;;2.60;99.90;;;;;;4725161;30;20107;-50
2023/12/08 11:07:13;;;;;;;25.02;15.00;;;2.60;99.90;;;;;;4726462;30;20135;-54
2023/12/08 11:09:40;;;;;;;32.85;18.27;;;2.60;99.90;;;;;;4720831;30;20060;-50
2023/12/08 11:12:12;;;;;;;29.25;15.40;;;2.60;99.90;;;;;;4711829;30;20666;-52
2023/12/08 11:14:53;;;;;;;29.88;16.38;;;2.60;99.90;;;;;;4716481;30;20067;-53
2023/12/08 11:17:30;;;;;;;27.27;15.47;;;2.60;99.90;;;;;;4711271;30;20061;-55
2023/12/08 11:19:59;;;;;;;28.65;15.88;;;2.50;99.90;;;;;;4728218;30;20110;-47
2023/12/08 11:22:26;;;;;;;27.30;14.45;;;2.50;99.90;;;;;;4720799;30;20123;-52
2023/12/08 11:24:56;;;;;;;26.75;14.95;;;2.50;99.90;;;;;;4727128;30;21846;-51
2023/12/08 11:27:54;;;;;;;29.42;15.38;;;2.50;99.90;;;;;;4719856;30;20058;-55
2023/12/08 11:30:50;;;;;;;29.58;15.32;;;2.50;99.90;;;;;;4711496;30;20543;-57
2023/12/08 11:34:06;;;;;;;29.23;15.20;;;2.40;99.90;;;;;;4703991;30;20056;-53
2023/12/08 11:36:34;;;;;;;27.20;15.00;;;2.40;99.90;;;;;;4709945;30;20065;-52
2023/12/08 11:39:33;;;;;;;26.95;14.85;;;2.50;99.90;;;;;;4725316;30;20139;-52
2023/12/08 11:42:09;;;;;;;30.50;15.50;;;2.50;99.90;;;;;;4724445;30;20058;-55
2023/12/08 11:44:38;;;;;;;34.72;19.08;;;2.50;99.90;;;;;;4704007;30;20052;-54
2023/12/08 11:47:07;;;;;;;30.33;17.75;;;2.50;99.90;;;;;;4725028;30;20060;-53
2023/12/08 11:49:42;;;;;;;29.17;16.55;;;2.50;99.90;;;;;;4731771;30;20171;-52
2023/12/08 11:52:17;;;;;;;31.63;16.65;;;2.50;99.90;;;;;;4723552;30;20060;-53
2023/12/08 11:55:19;;;;;;;31.30;16.30;;;2.60;99.90;;;;;;4724488;30;20412;-53
2023/12/08 11:57:59;;;;;;;33.47;17.50;;;2.50;99.90;;;;;;4724410;30;20155;-50
2023/12/08 12:00:28;;;;;;;37.50;17.52;;;2.50;99.90;;;;;;4729474;30;20417;-54
2023/12/08 12:02:57;;;;;;;33.58;17.83;;;2.50;99.90;;;;;;4710065;30;20057;-59
2023/12/08 12:05:26;;;;;;;37.38;20.50;;;2.50;99.90;;;;;;4725621;30;20304;-50
2023/12/08 12:07:55;;;;;;;39.28;20.58;;;2.40;99.90;;;;;;4727202;30;20053;-53
2023/12/08 12:10:36;;;;;;;32.60;17.23;;;2.40;99.90;;;;;;4699980;30;20049;-54
2023/12/08 12:13:07;;;;;;;32.63;16.50;;;2.40;99.90;;;;;;4711585;30;20415;-55
2023/12/08 12:15:36;;;;;;;36.05;18.80;;;2.50;99.90;;;;;;4731147;30;20113;-50
2023/12/08 12:18:04;;;;;;;32.22;18.70;;;2.50;99.90;;;;;;4709804;30;20589;-52
2023/12/08 12:20:35;;;;;;;33.00;18.50;;;2.60;99.90;;;;;;4727832;30;20057;-51
2023/12/08 12:23:02;;;;;;;33.13;17.77;;;2.50;99.90;;;;;;4723426;30;20049;-55
2023/12/08 12:25:29;;;;;;;36.45;17.52;;;2.50;99.90;;;;;;4711378;30;20073;-48
2023/12/08 12:27:57;;;;;;;34.47;18.92;;;2.50;99.90;;;;;;4732008;30;20056;-54
2023/12/08 12:30:25;;;;;;;31.92;18.52;;;2.60;99.90;;;;;;4729379;30;20057;-53
2023/12/08 12:32:53;;;;;;;32.40;18.42;;;2.60;99.90;;;;;;4726119;30;20057;-48
2023/12/08 12:35:21;;;;;;;34.20;18.42;;;2.60;99.90;;;;;;4725273;30;20063;-53
2023/12/08 12:37:48;;;;;;;33.45;18.73;;;2.60;99.90;;;;;;4729610;30;20056;-49
2023/12/08 12:40:15;;;;;;;39.45;21.02;;;2.60;99.90;;;;;;4728327;30;20044;-52
2023/12/08 12:42:44;;;;;;;37.50;20.25;;;2.70;99.90;;;;;;4726940;30;20049;-53